Airfield :
LOGIN :

Register | Disclaimer

   EN    FR    IT 

 










Legend :    VFR   Marginal VFR   IFR   Intensive IFR   Very Intensive IFR
Visi :
Ceiling :
>= 8 km
>= 3000ft
5 to 8 km
1000 to 3000 ft
1500m to 5 km
500 to 1000 ft
800 to 1500m
200 to 500 ft
< 800m
< 200 ft
Symbols :   Thunderstorms  Fog  Heavy snow  Heavy precipitations  Wind > 20 kt
SIGMETs :     Misc.  Thunderstorms  Icing  Turbulence  Mountain Waves  Volcanic Ashes






- Airport Elevation : 13 ft
- IATA code : LYX


EGMD - Lydd

CURRENT METAR :
  • 210320Z AUTO 34005KT 1100 BR NCD 03/03 Q1018

EXPIRED METARs :
  • 210250Z AUTO 34004KT 1300 BR FEW008/// 03/03 Q1018
  • 210220Z AUTO 34005KT 1500 BR NCD 02/02 Q1018
  • 210150Z AUTO 34005KT 1600 BR FEW006/// 02/02 Q1018
  • 210120Z AUTO 32003KT 0200 FG BKN001/// OVC004/// 03/03 Q1018
  • 210050Z AUTO 33002KT 0050 FG OVC001/// 04/04 Q1018

TAF TAF EGMD
Valid from the 21 at 03:00 until the 21 at 12:00 UTC


210154Z 2103/2112 32005KT 4000 BR SCT005
TEMPO 2103/2106 0100 FG BKN001
BECMG 2105/2108 06010KT 9999 NSW
ATIS : +44 1797 322 422



MET'MAP, your aeronautical weather chart ! - Copyright ORBIFLY December 2007 - Disclaimer

ORBIFLY MET'MAP TEAM :

Programming & Development : Alexandra Zaïnal
Concept & original design : Baudouin d'Aumeries
Assistance for programming : Marc-Olivier Méhu
Technical & hardware support : Manuel Goepfert

Contact : metmap@orbifly.com




SOURCES & CREDITS :

   NOAA